sensor_id;sensor_type;location;lat;lon;timestamp;P1;durP1;ratioP1;P2;durP2;ratioP2
15102;SDS011;7652;53.584;9.998;2023-06-10T00:02:43;7.07;;;4.00;;
15102;SDS011;7652;53.584;9.998;2023-06-10T00:06:05;7.97;;;4.10;;
15102;SDS011;7652;53.584;9.998;2023-06-10T00:09:27;5.87;;;4.40;;
15102;SDS011;7652;53.584;9.998;2023-06-10T00:12:48;9.83;;;5.20;;
15102;SDS011;7652;53.584;9.998;2023-06-10T00:16:13;5.33;;;3.40;;
15102;SDS011;7652;53.584;9.998;2023-06-10T00:19:34;6.13;;;3.20;;
15102;SDS011;7652;53.584;9.998;2023-06-10T00:22:56;6.20;;;3.67;;
15102;SDS011;7652;53.584;9.998;2023-06-10T00:26:21;6.00;;;2.97;;
15102;SDS011;7652;53.584;9.998;2023-06-10T00:29:43;6.83;;;3.43;;
15102;SDS011;7652;53.584;9.998;2023-06-10T00:33:06;8.73;;;3.30;;
15102;SDS011;7652;53.584;9.998;2023-06-10T00:36:27;7.43;;;3.10;;
15102;SDS011;7652;53.584;9.998;2023-06-10T00:39:49;5.87;;;3.23;;
15102;SDS011;7652;53.584;9.998;2023-06-10T00:43:11;5.43;;;2.57;;
15102;SDS011;7652;53.584;9.998;2023-06-10T00:46:32;6.00;;;3.00;;
15102;SDS011;7652;53.584;9.998;2023-06-10T00:49:56;4.83;;;2.67;;
15102;SDS011;7652;53.584;9.998;2023-06-10T00:53:18;4.90;;;2.63;;
15102;SDS011;7652;53.584;9.998;2023-06-10T00:56:40;5.50;;;3.20;;
15102;SDS011;7652;53.584;9.998;2023-06-10T01:00:03;5.47;;;2.83;;
15102;SDS011;7652;53.584;9.998;2023-06-10T01:03:28;6.67;;;2.83;;
15102;SDS011;7652;53.584;9.998;2023-06-10T01:06:54;5.13;;;3.07;;
15102;SDS011;7652;53.584;9.998;2023-06-10T01:10:28;6.57;;;2.90;;
15102;SDS011;7652;53.584;9.998;2023-06-10T01:13:53;8.33;;;3.10;;
15102;SDS011;7652;53.584;9.998;2023-06-10T01:17:17;5.23;;;2.67;;
15102;SDS011;7652;53.584;9.998;2023-06-10T01:20:40;5.67;;;2.50;;
15102;SDS011;7652;53.584;9.998;2023-06-10T01:24:05;7.13;;;3.40;;
15102;SDS011;7652;53.584;9.998;2023-06-10T01:27:29;5.63;;;2.60;;
15102;SDS011;7652;53.584;9.998;2023-06-10T01:30:55;4.40;;;2.80;;
15102;SDS011;7652;53.584;9.998;2023-06-10T01:34:27;6.67;;;3.13;;
15102;SDS011;7652;53.584;9.998;2023-06-10T01:37:51;6.77;;;2.30;;
15102;SDS011;7652;53.584;9.998;2023-06-10T01:41:17;6.63;;;2.90;;
15102;SDS011;7652;53.584;9.998;2023-06-10T01:44:39;3.80;;;2.60;;
15102;SDS011;7652;53.584;9.998;2023-06-10T01:48:01;5.43;;;2.70;;
15102;SDS011;7652;53.584;9.998;2023-06-10T01:51:23;4.40;;;2.23;;
15102;SDS011;7652;53.584;9.998;2023-06-10T01:54:44;5.57;;;2.63;;
15102;SDS011;7652;53.584;9.998;2023-06-10T01:58:07;4.10;;;2.40;;
15102;SDS011;7652;53.584;9.998;2023-06-10T02:01:29;5.17;;;2.40;;
15102;SDS011;7652;53.584;9.998;2023-06-10T02:04:50;8.57;;;2.67;;
15102;SDS011;7652;53.584;9.998;2023-06-10T02:08:12;11.30;;;2.83;;
15102;SDS011;7652;53.584;9.998;2023-06-10T02:11:33;5.87;;;2.40;;
15102;SDS011;7652;53.584;9.998;2023-06-10T02:14:56;5.27;;;2.57;;
15102;SDS011;7652;53.584;9.998;2023-06-10T02:18:17;3.00;;;2.10;;
15102;SDS011;7652;53.584;9.998;2023-06-10T02:21:40;3.43;;;2.10;;
15102;SDS011;7652;53.584;9.998;2023-06-10T02:25:02;2.63;;;1.93;;
15102;SDS011;7652;53.584;9.998;2023-06-10T02:28:24;6.90;;;2.10;;
15102;SDS011;7652;53.584;9.998;2023-06-10T02:31:46;8.00;;;2.37;;
15102;SDS011;7652;53.584;9.998;2023-06-10T02:35:08;3.83;;;2.00;;
15102;SDS011;7652;53.584;9.998;2023-06-10T02:38:32;3.90;;;1.77;;
15102;SDS011;7652;53.584;9.998;2023-06-10T02:41:53;7.23;;;2.40;;
15102;SDS011;7652;53.584;9.998;2023-06-10T02:45:15;3.60;;;2.27;;
15102;SDS011;7652;53.584;9.998;2023-06-10T02:48:41;3.70;;;1.77;;
15102;SDS011;7652;53.584;9.998;2023-06-10T02:52:03;8.37;;;2.13;;
15102;SDS011;7652;53.584;9.998;2023-06-10T02:55:27;4.47;;;2.10;;
15102;SDS011;7652;53.584;9.998;2023-06-10T02:58:49;5.00;;;2.30;;
15102;SDS011;7652;53.584;9.998;2023-06-10T03:02:12;4.57;;;2.13;;
15102;SDS011;7652;53.584;9.998;2023-06-10T03:05:36;5.00;;;1.93;;
15102;SDS011;7652;53.584;9.998;2023-06-10T03:08:57;3.37;;;2.00;;
15102;SDS011;7652;53.584;9.998;2023-06-10T03:12:19;7.00;;;1.87;;
15102;SDS011;7652;53.584;9.998;2023-06-10T03:15:40;3.90;;;2.23;;
15102;SDS011;7652;53.584;9.998;2023-06-10T03:19:02;8.87;;;2.10;;
15102;SDS011;7652;53.584;9.998;2023-06-10T03:22:25;3.70;;;1.80;;
15102;SDS011;7652;53.584;9.998;2023-06-10T03:25:46;4.40;;;1.90;;
15102;SDS011;7652;53.584;9.998;2023-06-10T03:29:08;5.57;;;2.13;;
15102;SDS011;7652;53.584;9.998;2023-06-10T03:32:29;8.13;;;2.20;;
15102;SDS011;7652;53.584;9.998;2023-06-10T03:35:51;3.13;;;1.90;;
15102;SDS011;7652;53.584;9.998;2023-06-10T03:39:14;2.50;;;1.93;;
15102;SDS011;7652;53.584;9.998;2023-06-10T03:42:35;6.53;;;2.10;;
15102;SDS011;7652;53.584;9.998;2023-06-10T03:45:57;5.37;;;2.07;;
15102;SDS011;7652;53.584;9.998;2023-06-10T03:49:19;3.37;;;1.80;;
15102;SDS011;7652;53.584;9.998;2023-06-10T03:52:40;3.97;;;2.07;;
15102;SDS011;7652;53.584;9.998;2023-06-10T03:56:03;8.23;;;1.93;;
15102;SDS011;7652;53.584;9.998;2023-06-10T03:59:25;6.13;;;2.13;;
15102;SDS011;7652;53.584;9.998;2023-06-10T04:02:46;6.87;;;2.00;;
15102;SDS011;7652;53.584;9.998;2023-06-10T04:06:09;2.90;;;1.70;;
15102;SDS011;7652;53.584;9.998;2023-06-10T04:09:31;6.40;;;1.80;;
15102;SDS011;7652;53.584;9.998;2023-06-10T04:12:53;5.73;;;1.83;;
15102;SDS011;7652;53.584;9.998;2023-06-10T04:16:15;4.33;;;1.57;;
15102;SDS011;7652;53.584;9.998;2023-06-10T04:19:36;4.00;;;1.57;;
15102;SDS011;7652;53.584;9.998;2023-06-10T04:22:57;2.83;;;1.50;;
15102;SDS011;7652;53.584;9.998;2023-06-10T04:26:19;3.53;;;1.60;;
15102;SDS011;7652;53.584;9.998;2023-06-10T04:29:43;3.50;;;1.97;;
15102;SDS011;7652;53.584;9.998;2023-06-10T04:33:05;2.80;;;1.80;;
15102;SDS011;7652;53.584;9.998;2023-06-10T04:36:29;3.63;;;1.70;;
15102;SDS011;7652;53.584;9.998;2023-06-10T04:39:50;6.60;;;1.83;;
15102;SDS011;7652;53.584;9.998;2023-06-10T04:43:12;4.63;;;1.70;;
15102;SDS011;7652;53.584;9.998;2023-06-10T04:46:35;3.70;;;1.57;;
15102;SDS011;7652;53.584;9.998;2023-06-10T04:49:56;3.00;;;1.60;;
15102;SDS011;7652;53.584;9.998;2023-06-10T04:53:18;3.77;;;1.80;;
15102;SDS011;7652;53.584;9.998;2023-06-10T04:56:40;3.50;;;1.83;;
15102;SDS011;7652;53.584;9.998;2023-06-10T05:00:01;3.93;;;1.83;;
15102;SDS011;7652;53.584;9.998;2023-06-10T05:03:27;8.13;;;2.30;;
15102;SDS011;7652;53.584;9.998;2023-06-10T05:06:49;2.47;;;1.50;;
15102;SDS011;7652;53.584;9.998;2023-06-10T05:10:10;5.13;;;2.10;;
15102;SDS011;7652;53.584;9.998;2023-06-10T05:13:32;6.47;;;1.90;;
15102;SDS011;7652;53.584;9.998;2023-06-10T05:16:53;8.60;;;2.27;;
15102;SDS011;7652;53.584;9.998;2023-06-10T05:20:16;6.17;;;2.00;;
15102;SDS011;7652;53.584;9.998;2023-06-10T05:23:38;4.57;;;1.80;;
15102;SDS011;7652;53.584;9.998;2023-06-10T05:27:00;3.97;;;1.43;;
15102;SDS011;7652;53.584;9.998;2023-06-10T05:30:22;8.23;;;2.00;;
15102;SDS011;7652;53.584;9.998;2023-06-10T05:33:45;5.93;;;1.70;;
15102;SDS011;7652;53.584;9.998;2023-06-10T05:37:07;3.63;;;2.20;;
15102;SDS011;7652;53.584;9.998;2023-06-10T05:40:29;3.00;;;1.87;;
15102;SDS011;7652;53.584;9.998;2023-06-10T05:43:51;6.53;;;1.80;;
15102;SDS011;7652;53.584;9.998;2023-06-10T05:47:12;4.93;;;1.53;;
15102;SDS011;7652;53.584;9.998;2023-06-10T05:50:33;4.87;;;1.80;;
15102;SDS011;7652;53.584;9.998;2023-06-10T05:53:59;8.03;;;2.07;;
15102;SDS011;7652;53.584;9.998;2023-06-10T05:57:21;4.80;;;1.67;;
15102;SDS011;7652;53.584;9.998;2023-06-10T06:00:43;5.00;;;2.00;;
15102;SDS011;7652;53.584;9.998;2023-06-10T06:04:05;2.83;;;1.60;;
15102;SDS011;7652;53.584;9.998;2023-06-10T06:07:27;6.27;;;2.00;;
15102;SDS011;7652;53.584;9.998;2023-06-10T06:10:49;5.10;;;1.83;;
15102;SDS011;7652;53.584;9.998;2023-06-10T06:14:11;5.87;;;1.60;;
15102;SDS011;7652;53.584;9.998;2023-06-10T06:17:32;4.73;;;1.60;;
15102;SDS011;7652;53.584;9.998;2023-06-10T06:20:54;4.00;;;1.70;;
15102;SDS011;7652;53.584;9.998;2023-06-10T06:24:15;5.07;;;2.03;;
15102;SDS011;7652;53.584;9.998;2023-06-10T06:27:38;2.83;;;1.17;;
15102;SDS011;7652;53.584;9.998;2023-06-10T06:31:00;3.60;;;1.70;;
15102;SDS011;7652;53.584;9.998;2023-06-10T06:34:22;4.40;;;1.73;;
15102;SDS011;7652;53.584;9.998;2023-06-10T06:37:43;3.93;;;1.57;;
15102;SDS011;7652;53.584;9.998;2023-06-10T06:41:04;3.57;;;1.67;;
15102;SDS011;7652;53.584;9.998;2023-06-10T06:44:28;3.60;;;1.47;;
15102;SDS011;7652;53.584;9.998;2023-06-10T06:47:49;4.00;;;1.60;;
15102;SDS011;7652;53.584;9.998;2023-06-10T06:51:11;3.57;;;1.40;;
15102;SDS011;7652;53.584;9.998;2023-06-10T06:54:33;4.23;;;1.67;;
15102;SDS011;7652;53.584;9.998;2023-06-10T06:57:54;4.73;;;1.80;;
15102;SDS011;7652;53.584;9.998;2023-06-10T07:01:18;3.90;;;1.67;;
15102;SDS011;7652;53.584;9.998;2023-06-10T07:04:40;4.47;;;2.13;;
15102;SDS011;7652;53.584;9.998;2023-06-10T07:08:01;3.13;;;1.93;;
15102;SDS011;7652;53.584;9.998;2023-06-10T07:11:23;5.50;;;2.07;;
15102;SDS011;7652;53.584;9.998;2023-06-10T07:14:45;3.57;;;1.87;;
15102;SDS011;7652;53.584;9.998;2023-06-10T07:18:07;4.10;;;1.80;;
15102;SDS011;7652;53.584;9.998;2023-06-10T07:21:29;5.17;;;1.73;;
15102;SDS011;7652;53.584;9.998;2023-06-10T07:24:52;5.83;;;1.67;;
15102;SDS011;7652;53.584;9.998;2023-06-10T07:28:15;4.27;;;1.83;;
15102;SDS011;7652;53.584;9.998;2023-06-10T07:31:36;3.67;;;1.80;;
15102;SDS011;7652;53.584;9.998;2023-06-10T07:34:59;2.60;;;1.83;;
15102;SDS011;7652;53.584;9.998;2023-06-10T07:38:21;4.67;;;2.10;;
15102;SDS011;7652;53.584;9.998;2023-06-10T07:41:42;3.23;;;1.67;;
15102;SDS011;7652;53.584;9.998;2023-06-10T07:45:04;6.13;;;2.20;;
15102;SDS011;7652;53.584;9.998;2023-06-10T07:48:27;2.80;;;1.70;;
15102;SDS011;7652;53.584;9.998;2023-06-10T07:51:50;4.03;;;2.17;;
15102;SDS011;7652;53.584;9.998;2023-06-10T07:55:11;3.30;;;1.80;;
15102;SDS011;7652;53.584;9.998;2023-06-10T07:58:33;3.10;;;1.90;;
15102;SDS011;7652;53.584;9.998;2023-06-10T08:01:54;3.77;;;2.20;;
15102;SDS011;7652;53.584;9.998;2023-06-10T08:05:16;5.63;;;2.20;;
15102;SDS011;7652;53.584;9.998;2023-06-10T08:08:39;4.40;;;2.07;;
15102;SDS011;7652;53.584;9.998;2023-06-10T08:12:03;4.30;;;2.57;;
15102;SDS011;7652;53.584;9.998;2023-06-10T08:15:26;4.17;;;2.20;;
15102;SDS011;7652;53.584;9.998;2023-06-10T08:18:48;5.53;;;2.20;;
15102;SDS011;7652;53.584;9.998;2023-06-10T08:22:14;4.03;;;2.13;;
15102;SDS011;7652;53.584;9.998;2023-06-10T08:25:37;3.60;;;2.00;;
15102;SDS011;7652;53.584;9.998;2023-06-10T08:28:59;5.83;;;2.50;;
15102;SDS011;7652;53.584;9.998;2023-06-10T08:32:20;4.73;;;2.20;;
15102;SDS011;7652;53.584;9.998;2023-06-10T08:35:42;8.07;;;3.07;;
15102;SDS011;7652;53.584;9.998;2023-06-10T08:39:03;5.37;;;2.77;;
15102;SDS011;7652;53.584;9.998;2023-06-10T08:42:27;5.57;;;2.37;;
15102;SDS011;7652;53.584;9.998;2023-06-10T08:45:55;3.30;;;2.23;;
15102;SDS011;7652;53.584;9.998;2023-06-10T08:49:20;5.53;;;2.40;;
15102;SDS011;7652;53.584;9.998;2023-06-10T08:52:44;3.37;;;2.50;;
15102;SDS011;7652;53.584;9.998;2023-06-10T08:56:08;5.80;;;2.33;;
15102;SDS011;7652;53.584;9.998;2023-06-10T08:59:32;5.33;;;2.50;;
15102;SDS011;7652;53.584;9.998;2023-06-10T09:02:54;3.83;;;2.27;;
15102;SDS011;7652;53.584;9.998;2023-06-10T09:06:16;3.03;;;2.20;;
15102;SDS011;7652;53.584;9.998;2023-06-10T09:09:39;4.87;;;2.30;;
15102;SDS011;7652;53.584;9.998;2023-06-10T09:13:02;4.27;;;2.03;;
15102;SDS011;7652;53.584;9.998;2023-06-10T09:16:26;9.03;;;2.80;;
15102;SDS011;7652;53.584;9.998;2023-06-10T09:19:47;4.80;;;2.67;;
15102;SDS011;7652;53.584;9.998;2023-06-10T09:23:13;4.07;;;2.37;;
15102;SDS011;7652;53.584;9.998;2023-06-10T09:26:36;4.27;;;2.40;;
15102;SDS011;7652;53.584;9.998;2023-06-10T09:29:58;4.93;;;2.67;;
15102;SDS011;7652;53.584;9.998;2023-06-10T09:33:23;4.40;;;2.30;;
15102;SDS011;7652;53.584;9.998;2023-06-10T09:36:46;6.00;;;2.60;;
15102;SDS011;7652;53.584;9.998;2023-06-10T09:40:08;7.67;;;2.60;;
15102;SDS011;7652;53.584;9.998;2023-06-10T09:43:41;6.37;;;2.80;;
15102;SDS011;7652;53.584;9.998;2023-06-10T09:47:03;5.00;;;2.43;;
15102;SDS011;7652;53.584;9.998;2023-06-10T09:50:27;5.10;;;2.50;;
15102;SDS011;7652;53.584;9.998;2023-06-10T09:53:54;3.77;;;2.40;;
15102;SDS011;7652;53.584;9.998;2023-06-10T09:57:16;6.10;;;2.70;;
15102;SDS011;7652;53.584;9.998;2023-06-10T10:00:38;3.87;;;2.30;;
15102;SDS011;7652;53.584;9.998;2023-06-10T10:04:00;5.07;;;2.77;;
15102;SDS011;7652;53.584;9.998;2023-06-10T10:07:22;6.43;;;2.70;;
15102;SDS011;7652;53.584;9.998;2023-06-10T10:10:44;3.37;;;2.37;;
15102;SDS011;7652;53.584;9.998;2023-06-10T10:14:05;5.33;;;2.50;;
15102;SDS011;7652;53.584;9.998;2023-06-10T10:17:29;3.10;;;2.23;;
15102;SDS011;7652;53.584;9.998;2023-06-10T10:20:52;7.07;;;2.70;;
15102;SDS011;7652;53.584;9.998;2023-06-10T10:24:17;6.17;;;2.97;;
15102;SDS011;7652;53.584;9.998;2023-06-10T10:27:43;2.80;;;2.30;;
15102;SDS011;7652;53.584;9.998;2023-06-10T10:31:08;6.27;;;2.90;;
15102;SDS011;7652;53.584;9.998;2023-06-10T10:34:34;4.47;;;2.50;;
15102;SDS011;7652;53.584;9.998;2023-06-10T10:38:04;5.37;;;2.87;;
15102;SDS011;7652;53.584;9.998;2023-06-10T10:41:28;2.83;;;2.23;;
15102;SDS011;7652;53.584;9.998;2023-06-10T10:44:51;6.57;;;2.83;;
15102;SDS011;7652;53.584;9.998;2023-06-10T10:48:14;5.37;;;2.90;;
15102;SDS011;7652;53.584;9.998;2023-06-10T10:51:36;5.67;;;3.10;;
15102;SDS011;7652;53.584;9.998;2023-06-10T10:54:57;3.73;;;2.40;;
15102;SDS011;7652;53.584;9.998;2023-06-10T10:58:24;5.70;;;2.60;;
15102;SDS011;7652;53.584;9.998;2023-06-10T11:01:45;5.07;;;2.57;;
15102;SDS011;7652;53.584;9.998;2023-06-10T11:05:07;4.43;;;2.40;;
15102;SDS011;7652;53.584;9.998;2023-06-10T11:08:46;5.53;;;2.83;;
15102;SDS011;7652;53.584;9.998;2023-06-10T11:12:08;5.47;;;2.87;;
15102;SDS011;7652;53.584;9.998;2023-06-10T11:15:31;4.50;;;2.53;;
15102;SDS011;7652;53.584;9.998;2023-06-10T11:18:53;5.97;;;3.27;;
15102;SDS011;7652;53.584;9.998;2023-06-10T11:22:16;4.50;;;3.07;;
15102;SDS011;7652;53.584;9.998;2023-06-10T11:25:38;6.17;;;2.70;;
15102;SDS011;7652;53.584;9.998;2023-06-10T11:29:01;6.33;;;3.03;;
15102;SDS011;7652;53.584;9.998;2023-06-10T11:32:32;5.97;;;2.83;;
15102;SDS011;7652;53.584;9.998;2023-06-10T11:35:55;7.80;;;3.20;;
15102;SDS011;7652;53.584;9.998;2023-06-10T11:39:19;4.57;;;3.00;;
15102;SDS011;7652;53.584;9.998;2023-06-10T11:42:43;4.47;;;2.87;;
15102;SDS011;7652;53.584;9.998;2023-06-10T11:46:05;4.77;;;3.00;;
15102;SDS011;7652;53.584;9.998;2023-06-10T11:49:29;6.03;;;3.37;;
15102;SDS011;7652;53.584;9.998;2023-06-10T11:52:50;4.73;;;3.00;;
15102;SDS011;7652;53.584;9.998;2023-06-10T11:56:11;5.20;;;3.27;;
15102;SDS011;7652;53.584;9.998;2023-06-10T11:59:33;5.07;;;3.30;;
15102;SDS011;7652;53.584;9.998;2023-06-10T12:02:55;5.00;;;3.00;;
15102;SDS011;7652;53.584;9.998;2023-06-10T12:06:19;3.03;;;2.70;;
15102;SDS011;7652;53.584;9.998;2023-06-10T12:09:41;9.37;;;3.03;;
15102;SDS011;7652;53.584;9.998;2023-06-10T12:13:02;5.33;;;3.47;;
15102;SDS011;7652;53.584;9.998;2023-06-10T12:16:24;6.73;;;3.33;;
15102;SDS011;7652;53.584;9.998;2023-06-10T12:19:46;5.83;;;3.47;;
15102;SDS011;7652;53.584;9.998;2023-06-10T12:23:09;4.97;;;3.50;;
15102;SDS011;7652;53.584;9.998;2023-06-10T12:26:38;7.23;;;3.50;;
15102;SDS011;7652;53.584;9.998;2023-06-10T12:30:02;7.93;;;3.13;;
15102;SDS011;7652;53.584;9.998;2023-06-10T12:33:25;4.37;;;3.40;;
15102;SDS011;7652;53.584;9.998;2023-06-10T12:36:47;6.53;;;3.58;;
15102;SDS011;7652;53.584;9.998;2023-06-10T12:40:11;4.95;;;3.40;;
15102;SDS011;7652;53.584;9.998;2023-06-10T12:43:32;4.22;;;3.17;;
15102;SDS011;7652;53.584;9.998;2023-06-10T12:46:54;5.00;;;3.65;;
15102;SDS011;7652;53.584;9.998;2023-06-10T12:50:16;6.78;;;3.20;;
15102;SDS011;7652;53.584;9.998;2023-06-10T12:53:37;4.80;;;3.40;;
15102;SDS011;7652;53.584;9.998;2023-06-10T12:57:01;5.18;;;3.63;;
15102;SDS011;7652;53.584;9.998;2023-06-10T13:00:23;5.03;;;3.35;;
15102;SDS011;7652;53.584;9.998;2023-06-10T13:03:45;5.07;;;3.45;;
15102;SDS011;7652;53.584;9.998;2023-06-10T13:07:07;5.90;;;3.40;;
15102;SDS011;7652;53.584;9.998;2023-06-10T13:10:30;5.45;;;3.03;;
15102;SDS011;7652;53.584;9.998;2023-06-10T13:13:53;6.25;;;3.92;;
15102;SDS011;7652;53.584;9.998;2023-06-10T13:17:14;7.70;;;3.47;;
15102;SDS011;7652;53.584;9.998;2023-06-10T13:20:36;4.22;;;3.38;;
15102;SDS011;7652;53.584;9.998;2023-06-10T13:23:58;6.00;;;3.28;;
15102;SDS011;7652;53.584;9.998;2023-06-10T13:27:19;3.25;;;2.95;;
15102;SDS011;7652;53.584;9.998;2023-06-10T13:30:42;4.30;;;3.30;;
15102;SDS011;7652;53.584;9.998;2023-06-10T13:34:03;4.15;;;2.90;;
15102;SDS011;7652;53.584;9.998;2023-06-10T13:37:25;4.68;;;2.70;;
15102;SDS011;7652;53.584;9.998;2023-06-10T13:40:47;5.28;;;3.10;;
15102;SDS011;7652;53.584;9.998;2023-06-10T13:44:08;5.45;;;3.33;;
15102;SDS011;7652;53.584;9.998;2023-06-10T13:47:31;5.30;;;3.08;;
15102;SDS011;7652;53.584;9.998;2023-06-10T13:50:53;6.32;;;2.50;;
15102;SDS011;7652;53.584;9.998;2023-06-10T13:54:14;5.60;;;2.70;;
15102;SDS011;7652;53.584;9.998;2023-06-10T13:57:36;4.87;;;2.83;;
15102;SDS011;7652;53.584;9.998;2023-06-10T14:00:57;9.00;;;3.27;;
15102;SDS011;7652;53.584;9.998;2023-06-10T14:04:20;6.13;;;2.90;;
15102;SDS011;7652;53.584;9.998;2023-06-10T14:07:42;5.13;;;2.50;;
15102;SDS011;7652;53.584;9.998;2023-06-10T14:11:03;4.97;;;3.07;;
15102;SDS011;7652;53.584;9.998;2023-06-10T14:14:25;5.03;;;2.87;;
15102;SDS011;7652;53.584;9.998;2023-06-10T14:17:46;10.67;;;3.60;;
15102;SDS011;7652;53.584;9.998;2023-06-10T14:21:09;10.63;;;3.13;;
15102;SDS011;7652;53.584;9.998;2023-06-10T14:24:31;4.63;;;2.80;;
15102;SDS011;7652;53.584;9.998;2023-06-10T14:27:53;8.97;;;3.63;;
15102;SDS011;7652;53.584;9.998;2023-06-10T14:31:14;5.87;;;3.00;;
15102;SDS011;7652;53.584;9.998;2023-06-10T14:34:36;8.13;;;3.00;;
15102;SDS011;7652;53.584;9.998;2023-06-10T14:38:00;5.90;;;3.40;;
15102;SDS011;7652;53.584;9.998;2023-06-10T14:41:26;5.13;;;3.27;;
15102;SDS011;7652;53.584;9.998;2023-06-10T14:44:48;7.83;;;3.10;;
15102;SDS011;7652;53.584;9.998;2023-06-10T14:48:10;5.93;;;3.30;;
15102;SDS011;7652;53.584;9.998;2023-06-10T14:51:32;7.17;;;3.30;;
15102;SDS011;7652;53.584;9.998;2023-06-10T14:54:57;8.13;;;2.87;;
15102;SDS011;7652;53.584;9.998;2023-06-10T14:58:18;7.07;;;2.93;;
15102;SDS011;7652;53.584;9.998;2023-06-10T15:01:40;5.33;;;3.03;;
15102;SDS011;7652;53.584;9.998;2023-06-10T15:05:01;7.47;;;2.97;;
15102;SDS011;7652;53.584;9.998;2023-06-10T15:08:23;7.77;;;3.17;;
15102;SDS011;7652;53.584;9.998;2023-06-10T15:11:46;6.87;;;2.80;;
15102;SDS011;7652;53.584;9.998;2023-06-10T15:15:07;7.37;;;3.27;;
15102;SDS011;7652;53.584;9.998;2023-06-10T15:18:30;5.10;;;3.07;;
15102;SDS011;7652;53.584;9.998;2023-06-10T15:21:51;8.07;;;3.13;;
15102;SDS011;7652;53.584;9.998;2023-06-10T15:25:12;5.07;;;2.33;;
15102;SDS011;7652;53.584;9.998;2023-06-10T15:28:38;7.33;;;3.40;;
15102;SDS011;7652;53.584;9.998;2023-06-10T15:31:59;7.30;;;3.30;;
15102;SDS011;7652;53.584;9.998;2023-06-10T15:35:21;5.63;;;3.13;;
15102;SDS011;7652;53.584;9.998;2023-06-10T15:38:42;4.83;;;2.83;;
15102;SDS011;7652;53.584;9.998;2023-06-10T15:42:06;10.60;;;3.53;;
15102;SDS011;7652;53.584;9.998;2023-06-10T15:45:29;7.33;;;3.70;;
15102;SDS011;7652;53.584;9.998;2023-06-10T15:48:54;4.33;;;2.60;;
15102;SDS011;7652;53.584;9.998;2023-06-10T15:52:16;5.33;;;2.93;;
15102;SDS011;7652;53.584;9.998;2023-06-10T15:55:37;5.13;;;2.67;;
15102;SDS011;7652;53.584;9.998;2023-06-10T15:58:59;4.27;;;2.67;;
15102;SDS011;7652;53.584;9.998;2023-06-10T16:02:22;3.97;;;2.97;;
15102;SDS011;7652;53.584;9.998;2023-06-10T16:05:43;7.20;;;2.83;;
15102;SDS011;7652;53.584;9.998;2023-06-10T16:09:05;6.47;;;3.70;;
15102;SDS011;7652;53.584;9.998;2023-06-10T16:12:26;4.53;;;3.30;;
15102;SDS011;7652;53.584;9.998;2023-06-10T16:15:48;6.90;;;3.23;;
15102;SDS011;7652;53.584;9.998;2023-06-10T16:19:10;6.63;;;3.03;;
15102;SDS011;7652;53.584;9.998;2023-06-10T16:22:32;5.07;;;3.23;;
15102;SDS011;7652;53.584;9.998;2023-06-10T16:25:53;7.17;;;3.00;;
15102;SDS011;7652;53.584;9.998;2023-06-10T16:29:14;7.87;;;3.13;;
15102;SDS011;7652;53.584;9.998;2023-06-10T16:32:36;6.83;;;3.60;;
15102;SDS011;7652;53.584;9.998;2023-06-10T16:35:59;5.97;;;2.43;;
15102;SDS011;7652;53.584;9.998;2023-06-10T16:39:21;5.97;;;2.60;;
15102;SDS011;7652;53.584;9.998;2023-06-10T16:42:43;9.10;;;3.80;;
15102;SDS011;7652;53.584;9.998;2023-06-10T16:46:04;6.07;;;3.40;;
15102;SDS011;7652;53.584;9.998;2023-06-10T16:49:25;7.07;;;3.40;;
15102;SDS011;7652;53.584;9.998;2023-06-10T16:52:48;6.53;;;3.40;;
15102;SDS011;7652;53.584;9.998;2023-06-10T16:56:10;5.07;;;3.27;;
15102;SDS011;7652;53.584;9.998;2023-06-10T16:59:31;6.07;;;3.07;;
15102;SDS011;7652;53.584;9.998;2023-06-10T17:02:52;5.83;;;3.07;;
15102;SDS011;7652;53.584;9.998;2023-06-10T17:06:15;5.90;;;3.23;;
15102;SDS011;7652;53.584;9.998;2023-06-10T17:09:39;8.53;;;4.10;;
15102;SDS011;7652;53.584;9.998;2023-06-10T17:13:00;4.93;;;3.10;;
15102;SDS011;7652;53.584;9.998;2023-06-10T17:16:22;6.70;;;3.53;;
15102;SDS011;7652;53.584;9.998;2023-06-10T17:19:43;7.97;;;3.10;;
15102;SDS011;7652;53.584;9.998;2023-06-10T17:23:08;5.07;;;3.57;;
15102;SDS011;7652;53.584;9.998;2023-06-10T17:26:32;6.23;;;3.60;;
15102;SDS011;7652;53.584;9.998;2023-06-10T17:29:54;7.93;;;3.77;;
15102;SDS011;7652;53.584;9.998;2023-06-10T17:33:15;8.30;;;4.00;;
15102;SDS011;7652;53.584;9.998;2023-06-10T17:36:37;7.10;;;3.73;;
15102;SDS011;7652;53.584;9.998;2023-06-10T17:39:58;8.00;;;3.40;;
15102;SDS011;7652;53.584;9.998;2023-06-10T17:43:21;7.40;;;3.63;;
15102;SDS011;7652;53.584;9.998;2023-06-10T17:46:44;8.57;;;4.17;;
15102;SDS011;7652;53.584;9.998;2023-06-10T17:50:05;7.07;;;2.90;;
15102;SDS011;7652;53.584;9.998;2023-06-10T17:53:27;5.33;;;3.53;;
15102;SDS011;7652;53.584;9.998;2023-06-10T17:56:50;7.07;;;3.07;;
15102;SDS011;7652;53.584;9.998;2023-06-10T18:00:13;5.27;;;3.43;;
15102;SDS011;7652;53.584;9.998;2023-06-10T18:03:35;5.93;;;3.30;;
15102;SDS011;7652;53.584;9.998;2023-06-10T18:06:57;7.50;;;3.77;;
15102;SDS011;7652;53.584;9.998;2023-06-10T18:10:18;7.63;;;3.33;;
15102;SDS011;7652;53.584;9.998;2023-06-10T18:13:40;6.53;;;3.27;;
15102;SDS011;7652;53.584;9.998;2023-06-10T18:17:03;6.17;;;4.20;;
15102;SDS011;7652;53.584;9.998;2023-06-10T18:20:24;10.13;;;3.93;;
15102;SDS011;7652;53.584;9.998;2023-06-10T18:23:46;8.03;;;3.33;;
15102;SDS011;7652;53.584;9.998;2023-06-10T18:27:08;9.33;;;4.17;;
15102;SDS011;7652;53.584;9.998;2023-06-10T18:30:32;6.77;;;4.17;;
15102;SDS011;7652;53.584;9.998;2023-06-10T18:33:55;8.00;;;3.80;;
15102;SDS011;7652;53.584;9.998;2023-06-10T18:37:16;6.50;;;3.83;;
15102;SDS011;7652;53.584;9.998;2023-06-10T18:40:38;10.57;;;3.90;;
15102;SDS011;7652;53.584;9.998;2023-06-10T18:43:59;8.63;;;3.67;;
15102;SDS011;7652;53.584;9.998;2023-06-10T18:47:21;7.07;;;3.67;;
15102;SDS011;7652;53.584;9.998;2023-06-10T18:50:44;6.53;;;3.80;;
15102;SDS011;7652;53.584;9.998;2023-06-10T18:54:05;5.33;;;4.07;;
15102;SDS011;7652;53.584;9.998;2023-06-10T18:57:26;5.83;;;3.23;;
15102;SDS011;7652;53.584;9.998;2023-06-10T19:00:48;7.57;;;3.83;;
15102;SDS011;7652;53.584;9.998;2023-06-10T19:04:10;9.97;;;3.57;;
15102;SDS011;7652;53.584;9.998;2023-06-10T19:07:33;6.67;;;3.63;;
15102;SDS011;7652;53.584;9.998;2023-06-10T19:10:55;6.97;;;3.20;;
15102;SDS011;7652;53.584;9.998;2023-06-10T19:14:16;6.80;;;3.27;;
15102;SDS011;7652;53.584;9.998;2023-06-10T19:17:38;6.50;;;3.57;;
15102;SDS011;7652;53.584;9.998;2023-06-10T19:21:00;8.30;;;3.80;;
15102;SDS011;7652;53.584;9.998;2023-06-10T19:24:28;6.07;;;3.10;;
15102;SDS011;7652;53.584;9.998;2023-06-10T19:27:49;7.17;;;3.47;;
15102;SDS011;7652;53.584;9.998;2023-06-10T19:31:11;6.53;;;3.43;;
15102;SDS011;7652;53.584;9.998;2023-06-10T19:34:32;5.53;;;3.33;;
15102;SDS011;7652;53.584;9.998;2023-06-10T19:37:54;5.73;;;3.10;;
15102;SDS011;7652;53.584;9.998;2023-06-10T19:41:17;6.93;;;3.17;;
15102;SDS011;7652;53.584;9.998;2023-06-10T19:44:40;8.67;;;3.50;;
15102;SDS011;7652;53.584;9.998;2023-06-10T19:48:01;6.43;;;3.10;;
15102;SDS011;7652;53.584;9.998;2023-06-10T19:51:25;5.23;;;3.20;;
15102;SDS011;7652;53.584;9.998;2023-06-10T19:54:47;6.40;;;3.13;;
15102;SDS011;7652;53.584;9.998;2023-06-10T19:58:09;5.27;;;2.80;;
15102;SDS011;7652;53.584;9.998;2023-06-10T20:01:32;4.37;;;2.90;;
15102;SDS011;7652;53.584;9.998;2023-06-10T20:04:54;7.60;;;3.20;;
15102;SDS011;7652;53.584;9.998;2023-06-10T20:08:15;5.80;;;3.13;;
15102;SDS011;7652;53.584;9.998;2023-06-10T20:11:37;3.40;;;2.90;;
15102;SDS011;7652;53.584;9.998;2023-06-10T20:15:00;4.93;;;3.10;;
15102;SDS011;7652;53.584;9.998;2023-06-10T20:18:21;4.10;;;2.73;;
15102;SDS011;7652;53.584;9.998;2023-06-10T20:21:43;5.70;;;2.80;;
15102;SDS011;7652;53.584;9.998;2023-06-10T20:25:04;3.20;;;2.90;;
15102;SDS011;7652;53.584;9.998;2023-06-10T20:28:27;4.73;;;2.70;;
15102;SDS011;7652;53.584;9.998;2023-06-10T20:31:50;4.67;;;2.60;;
15102;SDS011;7652;53.584;9.998;2023-06-10T20:35:12;4.50;;;2.50;;
15102;SDS011;7652;53.584;9.998;2023-06-10T20:38:33;5.97;;;2.80;;